createdAt,value
2023-05-20T00:03:47.829Z,13.44
2023-05-20T00:07:50.653Z,13.41
2023-05-20T00:11:54.767Z,13.38
2023-05-20T00:15:57.447Z,13.03
2023-05-20T00:20:00.720Z,13.29
2023-05-20T00:24:03.433Z,13.08
2023-05-20T00:28:07.722Z,13.18
2023-05-20T00:32:10.658Z,13.20
2023-05-20T00:36:13.430Z,13.07
2023-05-20T00:40:16.167Z,13.09
2023-05-20T00:44:23.993Z,12.82
2023-05-20T00:48:26.705Z,12.95
2023-05-20T00:52:31.240Z,12.94
2023-05-20T00:56:33.937Z,12.83
2023-05-20T01:00:38.266Z,12.87
2023-05-20T01:04:41.845Z,12.92
2023-05-20T01:08:44.464Z,12.93
2023-05-20T01:12:50.835Z,13.01
2023-05-20T01:16:55.200Z,13.03
2023-05-20T01:21:01.552Z,13.50
2023-05-20T01:25:06.396Z,12.93
2023-05-20T01:29:09.076Z,13.17
2023-05-20T01:33:12.773Z,13.10
2023-05-20T01:37:16.147Z,13.09
2023-05-20T01:41:20.023Z,12.95
2023-05-20T01:45:24.441Z,13.53
2023-05-20T01:49:27.110Z,13.11
2023-05-20T01:53:30.352Z,13.03
2023-05-20T01:57:34.411Z,12.93
2023-05-20T02:01:37.165Z,13.04
2023-05-20T02:05:39.945Z,12.96
2023-05-20T02:09:42.691Z,12.84
2023-05-20T02:13:46.737Z,13.09
2023-05-20T02:17:49.449Z,13.00
2023-05-20T02:21:52.537Z,12.96
2023-05-20T02:25:55.263Z,12.83
2023-05-20T02:29:59.501Z,12.70
2023-05-20T02:34:02.386Z,12.72
2023-05-20T02:38:05.169Z,12.88
2023-05-20T02:42:07.842Z,12.74
2023-05-20T02:46:12.067Z,12.52
2023-05-20T02:50:14.751Z,12.55
2023-05-20T02:54:17.524Z,12.75
2023-05-20T02:58:26.444Z,12.65
2023-05-20T03:02:30.647Z,12.62
2023-05-20T03:06:33.935Z,13.09
2023-05-20T03:10:36.638Z,12.84
2023-05-20T03:14:39.297Z,12.64
2023-05-20T03:18:43.603Z,12.60
2023-05-20T03:22:46.242Z,12.58
2023-05-20T03:26:49.070Z,12.70
2023-05-20T03:30:51.802Z,12.63
2023-05-20T03:34:58.159Z,12.64
2023-05-20T03:39:01.776Z,12.23
2023-05-20T03:43:04.417Z,12.20
2023-05-20T03:47:07.140Z,12.06
2023-05-20T03:51:11.348Z,12.06
2023-05-20T03:55:14.020Z,11.62
2023-05-20T03:59:17.891Z,11.93
2023-05-20T04:03:20.632Z,11.53
2023-05-20T04:07:24.733Z,11.61
2023-05-20T04:11:27.492Z,11.34
2023-05-20T04:15:30.804Z,11.34
2023-05-20T04:19:34.790Z,10.96
2023-05-20T04:23:38.836Z,11.20
2023-05-20T04:27:41.550Z,11.57
2023-05-20T04:31:45.559Z,11.75
2023-05-20T04:35:48.567Z,11.39
2023-05-20T04:39:52.605Z,11.40
2023-05-20T04:43:59.778Z,11.31
2023-05-20T04:48:02.546Z,11.22
2023-05-20T04:52:05.815Z,11.20
2023-05-20T04:56:09.966Z,11.50
2023-05-20T05:00:13.663Z,11.72
2023-05-20T05:04:16.401Z,11.88
2023-05-20T05:08:19.061Z,11.92
2023-05-20T05:12:23.234Z,12.20
2023-05-20T05:16:26.093Z,12.87
2023-05-20T05:20:28.897Z,14.59
2023-05-20T05:24:31.638Z,14.36
2023-05-20T05:28:35.669Z,14.17
2023-05-20T05:32:38.603Z,14.23
2023-05-20T05:36:41.865Z,13.60
2023-05-20T05:40:44.532Z,13.25
2023-05-20T05:44:49.453Z,13.70
2023-05-20T05:48:52.314Z,14.95
2023-05-20T05:52:55.114Z,15.37
2023-05-20T05:56:57.862Z,15.47
2023-05-20T06:01:02.030Z,14.54
2023-05-20T06:05:05.064Z,14.99
2023-05-20T06:09:07.749Z,15.24
2023-05-20T06:13:10.473Z,15.18
2023-05-20T06:17:14.560Z,14.67
2023-05-20T06:21:17.706Z,14.90
2023-05-20T06:25:20.389Z,15.43
2023-05-20T06:29:23.155Z,15.75
2023-05-20T06:33:28.572Z,16.13
2023-05-20T06:37:31.723Z,15.17
2023-05-20T06:41:34.438Z,16.03
2023-05-20T06:45:37.147Z,16.19
2023-05-20T06:49:41.152Z,15.75
2023-05-20T06:53:43.812Z,15.84
2023-05-20T06:57:46.481Z,16.10
2023-05-20T07:01:49.213Z,15.54
2023-05-20T07:05:53.981Z,16.32
2023-05-20T07:09:56.643Z,16.99
2023-05-20T07:13:59.334Z,16.81
2023-05-20T07:18:02.148Z,17.83
2023-05-20T07:22:06.538Z,17.92
2023-05-20T07:26:09.221Z,17.06
2023-05-20T07:30:12.143Z,16.76
2023-05-20T07:34:14.807Z,16.71
2023-05-20T07:38:18.811Z,16.67
2023-05-20T07:42:21.546Z,16.49
2023-05-20T07:46:24.330Z,16.86
2023-05-20T07:50:27.153Z,16.69
2023-05-20T07:54:31.208Z,16.53
2023-05-20T07:58:33.894Z,16.71
2023-05-20T08:02:36.683Z,16.87
2023-05-20T08:06:39.818Z,17.91
2023-05-20T08:10:43.895Z,17.29
2023-05-20T08:14:46.556Z,17.11
2023-05-20T08:18:49.316Z,16.90
2023-05-20T08:22:52.030Z,17.98
2023-05-20T08:26:56.026Z,17.99
2023-05-20T08:30:59.366Z,17.95
2023-05-20T08:35:02.742Z,17.69
2023-05-20T08:39:05.391Z,18.01
2023-05-20T08:43:09.510Z,17.72
2023-05-20T08:47:12.362Z,18.62
2023-05-20T08:51:14.939Z,17.72
2023-05-20T08:55:22.980Z,17.29
2023-05-20T08:59:27.473Z,17.74
2023-05-20T09:03:30.568Z,17.34
2023-05-20T09:07:33.599Z,17.95
2023-05-20T09:11:36.482Z,17.36
2023-05-20T09:15:40.885Z,18.00
2023-05-20T09:19:43.599Z,18.10
2023-05-20T09:23:49.159Z,19.23
2023-05-20T09:27:51.838Z,19.44
2023-05-20T09:31:56.833Z,19.75
2023-05-20T09:36:04.671Z,19.74
2023-05-20T09:40:10.184Z,19.94
2023-05-20T09:44:13.769Z,19.31
2023-05-20T09:48:17.831Z,19.74
2023-05-20T09:52:21.640Z,19.04
2023-05-20T09:56:25.189Z,19.66
2023-05-20T10:00:27.972Z,19.36
2023-05-20T10:04:32.502Z,18.78
2023-05-20T10:08:55.768Z,18.15
2023-05-20T10:13:09.238Z,18.73
2023-05-20T10:17:16.959Z,19.17
2023-05-20T10:21:24.534Z,20.06
2023-05-20T10:25:29.293Z,19.34
2023-05-20T10:29:43.656Z,19.79
2023-05-20T10:33:47.461Z,19.18
2023-05-20T10:37:51.518Z,19.74
2023-05-20T10:41:54.298Z,18.86
2023-05-20T10:45:57.671Z,20.45
2023-05-20T10:50:02.090Z,20.15
2023-05-20T10:54:06.461Z,19.84
2023-05-20T10:58:09.149Z,19.97
2023-05-20T11:02:12.485Z,20.32
2023-05-20T11:06:17.574Z,20.47
2023-05-20T11:10:24.001Z,19.87
2023-05-20T11:14:26.680Z,18.91
2023-05-20T11:18:32.055Z,20.43
2023-05-20T11:22:34.722Z,20.74
2023-05-20T11:26:39.381Z,20.67
2023-05-20T11:30:43.946Z,19.91
2023-05-20T11:34:46.791Z,20.70
2023-05-20T11:38:49.475Z,20.45
2023-05-20T11:42:56.257Z,20.21
2023-05-20T11:47:01.409Z,20.34
2023-05-20T11:51:04.314Z,20.89
2023-05-20T11:55:11.852Z,21.00
2023-05-20T11:59:18.578Z,20.28
2023-05-20T12:03:21.850Z,20.47
2023-05-20T12:07:24.798Z,20.13
2023-05-20T12:11:27.342Z,20.39
2023-05-20T12:15:31.416Z,20.01
2023-05-20T12:19:36.041Z,19.59
2023-05-20T12:23:39.608Z,20.15
2023-05-20T12:27:42.377Z,20.37
2023-05-20T12:31:46.462Z,20.15
2023-05-20T12:35:49.241Z,20.61
2023-05-20T12:39:52.141Z,21.25
2023-05-20T12:43:55.261Z,20.37
2023-05-20T12:47:59.623Z,20.44
2023-05-20T12:52:05.761Z,19.50
2023-05-20T12:56:11.570Z,20.27
2023-05-20T13:00:14.777Z,21.27
2023-05-20T13:04:18.875Z,21.66
2023-05-20T13:08:21.537Z,22.18
2023-05-20T13:12:24.337Z,21.78
2023-05-20T13:16:27.278Z,21.02
2023-05-20T13:20:32.084Z,21.33
2023-05-20T13:24:35.062Z,21.48
2023-05-20T13:28:37.755Z,21.48
2023-05-20T13:32:40.520Z,20.60
2023-05-20T13:36:45.329Z,20.46
2023-05-20T13:40:48.971Z,20.65
2023-05-20T13:44:51.699Z,20.45
2023-05-20T13:48:54.437Z,20.18
2023-05-20T13:52:58.482Z,20.48
2023-05-20T13:57:01.708Z,20.91
2023-05-20T14:01:04.953Z,20.31
2023-05-20T14:05:08.774Z,19.55
2023-05-20T14:09:12.817Z,19.50
2023-05-20T14:13:15.520Z,19.60
2023-05-20T14:17:19.075Z,20.73
2023-05-20T14:21:21.732Z,21.22
2023-05-20T14:25:25.743Z,20.38
2023-05-20T14:29:28.451Z,20.46
2023-05-20T14:33:31.076Z,21.08
2023-05-20T14:37:33.794Z,19.82
2023-05-20T14:41:37.806Z,19.74
2023-05-20T14:45:41.533Z,19.10
2023-05-20T14:49:44.611Z,19.01
2023-05-20T14:53:47.272Z,19.80
2023-05-20T14:57:51.275Z,19.80
2023-05-20T15:01:54.370Z,19.54
2023-05-20T15:05:57.046Z,19.60
2023-05-20T15:09:59.800Z,19.21
2023-05-20T15:14:03.823Z,19.22
2023-05-20T15:18:06.605Z,19.57
2023-05-20T15:22:09.358Z,19.62
2023-05-20T15:26:12.930Z,20.18
2023-05-20T15:30:17.318Z,19.73
2023-05-20T15:34:20.204Z,19.60
2023-05-20T15:38:22.933Z,19.39
2023-05-20T15:42:25.567Z,19.55
2023-05-20T15:46:29.858Z,19.60
2023-05-20T15:50:32.657Z,19.88
2023-05-20T15:54:35.549Z,19.37
2023-05-20T15:58:38.200Z,18.89
2023-05-20T16:02:43.398Z,18.64
2023-05-20T16:06:46.211Z,18.72
2023-05-20T16:10:48.885Z,18.71
2023-05-20T16:14:51.677Z,19.01
2023-05-20T16:18:55.921Z,18.74
2023-05-20T16:22:58.818Z,18.68
2023-05-20T16:27:01.414Z,18.64
2023-05-20T16:31:04.359Z,18.50
2023-05-20T16:35:09.741Z,18.61
2023-05-20T16:39:12.834Z,18.50
2023-05-20T16:43:15.562Z,18.82
2023-05-20T16:47:18.411Z,18.65
2023-05-20T16:51:22.845Z,18.52
2023-05-20T16:55:25.616Z,18.42
2023-05-20T16:59:30.283Z,18.39
2023-05-20T17:03:33.003Z,18.44
2023-05-20T17:07:37.126Z,18.18
2023-05-20T17:11:39.778Z,18.19
2023-05-20T17:15:42.496Z,18.42
2023-05-20T17:19:45.292Z,18.40
2023-05-20T17:23:49.406Z,18.03
2023-05-20T17:27:52.128Z,18.05
2023-05-20T17:31:54.806Z,18.21
2023-05-20T17:35:57.554Z,18.04
2023-05-20T17:40:01.711Z,18.15
2023-05-20T17:44:04.738Z,17.90
2023-05-20T17:48:08.862Z,17.72
2023-05-20T17:52:13.513Z,17.58
2023-05-20T17:56:17.795Z,17.66
2023-05-20T18:00:21.722Z,17.77
2023-05-20T18:04:24.440Z,17.75
2023-05-20T18:08:27.085Z,17.55
2023-05-20T18:12:31.131Z,17.75
2023-05-20T18:16:33.865Z,17.47
2023-05-20T18:20:36.890Z,17.56
2023-05-20T18:24:39.677Z,17.21
2023-05-20T18:28:43.831Z,17.30
2023-05-20T18:32:46.599Z,17.29
2023-05-20T18:36:49.520Z,16.87
2023-05-20T18:40:52.248Z,17.15
2023-05-20T18:44:56.283Z,16.73
2023-05-20T18:48:58.996Z,16.67
2023-05-20T18:53:01.718Z,17.18
2023-05-20T18:57:05.271Z,16.91
2023-05-20T19:01:09.319Z,16.73
2023-05-20T19:05:13.626Z,16.15
2023-05-20T19:09:16.507Z,16.61
2023-05-20T19:13:19.239Z,16.15
2023-05-20T19:17:23.208Z,16.07
2023-05-20T19:21:26.058Z,15.96
2023-05-20T19:25:28.778Z,15.97
2023-05-20T19:29:31.617Z,15.90
2023-05-20T19:33:35.658Z,15.88
2023-05-20T19:37:38.390Z,16.04
2023-05-20T19:41:41.058Z,15.99
2023-05-20T19:45:44.024Z,15.62
2023-05-20T19:49:48.064Z,15.62
2023-05-20T19:53:51.072Z,15.72
2023-05-20T19:57:54.066Z,15.34
2023-05-20T20:01:56.795Z,15.93
2023-05-20T20:06:01.050Z,15.25
2023-05-20T20:10:03.911Z,15.29
2023-05-20T20:14:06.573Z,15.05
2023-05-20T20:18:09.311Z,15.34
2023-05-20T20:22:13.560Z,15.00
2023-05-20T20:26:16.220Z,14.67
2023-05-20T20:30:21.428Z,14.91
2023-05-20T20:34:24.236Z,14.87
2023-05-20T20:38:28.581Z,15.03
2023-05-20T20:42:32.296Z,14.86
2023-05-20T20:46:37.500Z,14.80
2023-05-20T20:50:40.207Z,14.77
2023-05-20T20:54:44.204Z,14.75
2023-05-20T20:58:46.855Z,15.04
2023-05-20T21:02:49.613Z,14.74
2023-05-20T21:06:52.290Z,14.33
2023-05-20T21:10:59.108Z,14.32
2023-05-20T21:15:02.002Z,14.45
2023-05-20T21:19:04.754Z,14.60
2023-05-20T21:23:07.426Z,14.39
2023-05-20T21:27:11.446Z,14.51
2023-05-20T21:31:14.248Z,14.39
2023-05-20T21:35:17.217Z,14.66
2023-05-20T21:39:19.830Z,14.28
2023-05-20T21:43:23.851Z,14.19
2023-05-20T21:47:26.565Z,14.13
2023-05-20T21:51:29.219Z,13.78
2023-05-20T21:55:31.895Z,14.35
2023-05-20T21:59:35.969Z,14.09
2023-05-20T22:03:39.836Z,13.80
2023-05-20T22:07:44.303Z,13.63
2023-05-20T22:11:47.936Z,13.97
2023-05-20T22:15:52.696Z,13.77
2023-05-20T22:19:55.371Z,13.54
2023-05-20T22:23:57.989Z,13.57
2023-05-20T22:28:01.403Z,14.05
2023-05-20T22:32:06.384Z,13.45
2023-05-20T22:36:09.427Z,13.44
2023-05-20T22:40:12.650Z,13.31
2023-05-20T22:44:15.174Z,13.74
2023-05-20T22:48:22.894Z,13.32
2023-05-20T22:52:25.934Z,13.49
2023-05-20T22:56:29.632Z,13.46
2023-05-20T23:00:32.304Z,13.13
2023-05-20T23:04:36.449Z,13.30
2023-05-20T23:08:39.186Z,13.32
2023-05-20T23:12:41.821Z,13.30
2023-05-20T23:16:44.504Z,13.53
2023-05-20T23:20:48.678Z,13.13
2023-05-20T23:24:51.568Z,13.01
2023-05-20T23:28:54.322Z,13.33
2023-05-20T23:32:57.835Z,13.11
2023-05-20T23:37:01.891Z,13.08
2023-05-20T23:41:04.800Z,13.16
2023-05-20T23:45:08.280Z,13.30
2023-05-20T23:49:12.219Z,13.07
2023-05-20T23:53:17.035Z,13.13
2023-05-20T23:57:19.956Z,13.15
